Time;durP1;ratioP1;P1;durP2;ratioP2;P2;SDS_P1;SDS_P2;PMS_P1;PMS_P2;Temp;Humidity;BMP_temperature;BMP_pressure;BME280_temperature;BME280_humidity;BME280_pressure;Samples;Min_cycle;Max_cycle;Signal;HPM_P1;HPM_P2
2022/05/29 00:02:10;;;;;;;7.33;1.90;;;10.00;99.90;;;;;;4990375;28;20373;-69
2022/05/29 00:04:39;;;;;;;4.43;1.73;;;10.00;99.90;;;;;;4995305;28;20048;-69
2022/05/29 00:07:05;;;;;;;3.37;1.53;;;9.90;99.90;;;;;;4990447;28;20518;-69
2022/05/29 00:09:35;;;;;;;4.93;1.60;;;10.00;99.90;;;;;;4991602;28;20029;-69
2022/05/29 00:12:03;;;;;;;4.50;1.50;;;9.90;99.90;;;;;;4990376;28;20468;-70
2022/05/29 00:14:29;;;;;;;3.97;1.40;;;10.10;99.90;;;;;;4990683;28;20030;-69
2022/05/29 00:16:55;;;;;;;4.73;1.23;;;10.10;99.90;;;;;;4990633;28;20072;-70
2022/05/29 00:19:21;;;;;;;4.60;1.60;;;10.00;99.90;;;;;;4990500;28;20487;-69
2022/05/29 00:21:47;;;;;;;5.23;1.40;;;;;;;;;;4990333;28;20472;-69
2022/05/29 00:24:14;;;;;;;7.83;1.30;;;10.00;99.90;;;;;;4990456;28;20116;-69
2022/05/29 00:26:39;;;;;;;4.43;1.30;;;10.30;99.90;;;;;;4991119;28;20027;-69
2022/05/29 00:29:06;;;;;;;5.37;1.60;;;;;;;;;;4990520;28;20049;-69
2022/05/29 00:31:31;;;;;;;4.80;1.00;;;10.10;99.90;;;;;;4990260;28;20519;-69
2022/05/29 00:33:57;;;;;;;4.20;1.87;;;;;;;;;;4989217;28;20089;-69
2022/05/29 00:36:22;;;;;;;6.50;1.70;;;10.10;99.90;;;;;;4990460;28;20105;-69
2022/05/29 00:38:50;;;;;;;6.50;1.40;;;;;;;;;;4990675;28;20109;-69
2022/05/29 00:41:29;;;;;;;3.40;1.27;;;10.10;99.90;;;;;;4990404;28;20464;-70
2022/05/29 00:44:14;;;;;;;11.83;2.57;;;10.00;99.90;;;;;;4990332;28;20023;-69
2022/05/29 00:46:54;;;;;;;4.40;1.80;;;10.00;99.90;;;;;;4990500;28;20415;-70
2022/05/29 00:49:25;;;;;;;2.47;1.27;;;10.00;99.90;;;;;;4989929;28;20559;-70
2022/05/29 00:51:52;;;;;;;7.22;1.90;;;10.00;99.90;;;;;;4990538;28;20168;-70
2022/05/29 00:54:18;;;;;;;5.10;2.27;;;10.00;99.90;;;;;;4990123;28;20048;-70
2022/05/29 00:56:45;;;;;;;6.30;1.87;;;10.00;99.90;;;;;;4988117;28;20027;-70
2022/05/29 00:59:16;;;;;;;4.30;1.83;;;10.00;99.90;;;;;;4989891;28;20464;-70
2022/05/29 01:01:42;;;;;;;4.83;2.20;;;10.10;99.90;;;;;;4990100;28;20184;-70
2022/05/29 01:04:09;;;;;;;5.70;2.33;;;;;;;;;;4993820;28;20037;-70
2022/05/29 01:06:35;;;;;;;3.63;2.13;;;10.00;99.90;;;;;;4990204;28;20030;-69
2022/05/29 01:09:02;;;;;;;4.57;2.27;;;10.00;99.90;;;;;;4989900;28;20030;-70
2022/05/29 01:11:50;;;;;;;4.50;2.07;;;10.30;99.90;;;;;;4990415;28;20422;-70
2022/05/29 01:14:31;;;;;;;5.10;2.27;;;10.10;99.90;;;;;;4989699;28;20025;-70
2022/05/29 01:17:18;;;;;;;6.87;2.77;;;10.10;99.90;;;;;;4987301;28;20080;-70
2022/05/29 01:19:59;;;;;;;5.70;2.77;;;10.10;99.90;;;;;;4987013;28;20382;-70
2022/05/29 01:22:57;;;;;;;7.67;2.53;;;10.10;99.90;;;;;;4985423;28;20058;-70
2022/05/29 01:25:46;;;;;;;7.77;2.30;;;10.20;99.90;;;;;;4990952;28;20030;-70
2022/05/29 01:28:24;;;;;;;4.77;2.67;;;10.00;99.90;;;;;;4993682;28;20026;-70
2022/05/29 01:31:28;;;;;;;4.78;2.17;;;10.10;99.90;;;;;;4994317;28;20088;-70
2022/05/29 01:34:13;;;;;;;13.80;3.90;;;10.10;99.90;;;;;;4987012;28;20574;-70
2022/05/29 01:36:38;;;;;;;;;;;10.10;99.90;;;;;;4994649;28;20031;-70
2022/05/29 01:39:26;;;;;;;3.83;2.30;;;10.00;99.90;;;;;;4992710;28;20382;-70
2022/05/29 01:42:03;;;;;;;7.13;2.37;;;9.60;99.90;;;;;;4994091;28;20057;-70
2022/05/29 01:44:55;;;;;;;5.17;1.90;;;10.00;99.90;;;;;;4987637;28;20037;-69
2022/05/29 01:47:26;;;;;;;7.43;2.70;;;10.00;99.90;;;;;;4990945;28;20467;-69
2022/05/29 01:49:59;;;;;;;5.90;2.08;;;10.10;99.90;;;;;;4990697;28;20069;-69
2022/05/29 01:52:34;;;;;;;4.22;2.40;;;10.00;99.90;;;;;;4993826;28;20514;-69
2022/05/29 01:55:00;;;;;;;6.05;2.25;;;10.10;99.90;;;;;;4992141;28;20106;-69
2022/05/29 01:57:34;;;;;;;7.35;2.35;;;10.00;99.90;;;;;;4993319;28;20122;-69
2022/05/29 02:00:16;;;;;;;6.57;1.90;;;10.10;99.90;;;;;;4992919;28;20027;-70
2022/05/29 02:02:53;;;;;;;5.47;1.83;;;9.90;99.90;;;;;;4989097;28;20031;-69
2022/05/29 02:05:26;;;;;;;6.97;1.80;;;10.00;99.90;;;;;;4993259;28;20074;-69
2022/05/29 02:07:59;;;;;;;5.60;1.70;;;10.00;99.90;;;;;;4992167;28;20036;-70
2022/05/29 02:10:46;;;;;;;6.13;2.35;;;9.90;99.90;;;;;;4993640;28;20044;-70
2022/05/29 02:13:23;;;;;;;5.57;1.67;;;9.90;99.90;;;;;;4992172;28;20475;-70
2022/05/29 02:16:01;;;;;;;9.40;2.13;;;9.90;99.90;;;;;;4992216;28;20101;-69
2022/05/29 02:19:06;;;;;;;7.63;2.07;;;9.90;99.90;;;;;;4993139;28;20491;-69
2022/05/29 02:21:41;;;;;;;4.47;1.57;;;9.90;99.90;;;;;;4914113;29;20035;-70
2022/05/29 02:24:13;;;;;;;6.30;1.95;;;9.90;99.90;;;;;;4909748;29;20036;-69
2022/05/29 02:26:54;;;;;;;7.60;2.53;;;9.80;99.90;;;;;;4913665;29;20036;-69
2022/05/29 02:29:20;;;;;;;8.13;2.43;;;9.90;99.90;;;;;;4913645;29;20048;-69
2022/05/29 02:32:08;;;;;;;4.60;2.17;;;9.80;99.90;;;;;;4913935;29;20063;-69
2022/05/29 02:34:44;;;;;;;9.90;2.37;;;9.80;99.90;;;;;;4903349;29;20068;-69
2022/05/29 02:37:10;;;;;;;7.73;2.00;;;;;;;;;;4912650;29;20123;-69
2022/05/29 02:40:07;;;;;;;8.93;2.30;;;9.80;99.90;;;;;;4913913;29;20516;-70
2022/05/29 02:42:56;;;;;;;4.37;1.80;;;9.70;99.90;;;;;;4913527;29;20039;-70
2022/05/29 02:45:33;;;;;;;2.43;1.47;;;9.70;99.90;;;;;;4913448;29;20036;-71
2022/05/29 02:48:38;;;;;;;2.07;1.37;;;9.80;99.90;;;;;;4914907;29;20036;-70
2022/05/29 02:51:20;;;;;;;3.85;1.63;;;9.60;99.90;;;;;;4910913;29;20077;-70
2022/05/29 02:53:47;;;;;;;4.90;1.20;;;9.60;99.90;;;;;;4913834;29;20150;-70
2022/05/29 02:56:12;;;;;;;3.90;1.40;;;9.70;99.90;;;;;;4968979;28;20035;-69
2022/05/29 02:58:40;;;;;;;7.60;1.70;;;9.60;99.90;;;;;;4991862;28;20041;-70
2022/05/29 03:01:06;;;;;;;5.70;1.80;;;;;;;;;;4991985;28;20033;-69
2022/05/29 03:03:47;;;;;;;3.13;1.30;;;9.70;99.90;;;;;;4994368;28;20034;-70
2022/05/29 03:06:42;;;;;;;8.33;2.20;;;9.70;99.90;;;;;;4992010;28;20041;-69
2022/05/29 03:09:22;;;;;;;;;;;9.70;99.90;;;;;;4992436;28;20033;-70
2022/05/29 03:11:48;;;;;;;5.30;1.20;;;9.70;99.90;;;;;;4988561;28;20329;-69
2022/05/29 03:15:08;;;;;;;4.27;1.70;;;9.60;99.90;;;;;;4991431;28;20073;-70
2022/05/29 03:17:43;;;;;;;5.87;1.23;;;9.90;99.90;;;;;;4907317;29;20212;-70
2022/05/29 03:20:37;;;;;;;5.03;1.80;;;10.00;99.90;;;;;;4910109;29;20506;-70
2022/05/29 03:23:20;;;;;;;;;;;9.70;99.90;;;;;;4882059;29;20069;-70
2022/05/29 03:25:54;;;;;;;5.13;1.60;;;9.60;99.90;;;;;;4910411;29;19915;-70
2022/05/29 03:28:27;;;;;;;4.75;2.05;;;9.40;99.90;;;;;;4910459;29;20028;-70
2022/05/29 03:30:56;;;;;;;4.32;1.80;;;9.70;99.90;;;;;;4911835;29;20454;-70
2022/05/29 03:33:22;;;;;;;5.33;2.30;;;9.70;99.90;;;;;;4912251;29;20040;-70
2022/05/29 03:35:53;;;;;;;7.97;2.70;;;9.50;99.90;;;;;;4912201;29;20125;-70
2022/05/29 03:38:20;;;;;;;5.40;2.23;;;9.70;99.90;;;;;;4909464;29;20040;-70
2022/05/29 03:40:47;;;;;;;8.83;2.60;;;9.70;99.90;;;;;;4910832;29;20544;-70
2022/05/29 03:43:12;;;;;;;7.47;1.80;;;;;;;;;;4912341;29;20092;-70
2022/05/29 03:45:38;;;;;;;2.80;1.77;;;9.70;99.90;;;;;;4912518;29;20068;-70
2022/05/29 03:48:05;;;;;;;5.97;2.67;;;9.70;99.90;;;;;;4911178;29;20103;-70
2022/05/29 03:50:30;;;;;;;4.03;1.97;;;9.70;99.90;;;;;;4916789;28;20051;-70
2022/05/29 03:52:56;;;;;;;4.20;1.73;;;9.60;99.90;;;;;;4991131;28;20456;-70
2022/05/29 03:55:26;;;;;;;5.47;2.33;;;9.80;99.90;;;;;;4991004;28;20038;-70
2022/05/29 03:57:52;;;;;;;5.13;1.73;;;9.80;99.90;;;;;;4991432;28;20080;-70
2022/05/29 04:00:20;;;;;;;6.03;2.13;;;9.90;99.90;;;;;;4991134;28;20026;-70
2022/05/29 04:02:46;;;;;;;6.10;1.90;;;;;;;;;;4991277;28;20121;-70
2022/05/29 04:05:14;;;;;;;5.80;2.20;;;9.90;99.90;;;;;;4990950;28;20037;-70
2022/05/29 04:13:11;;;;;;;8.67;2.67;;;10.10;99.90;;;;;;4990663;28;20076;-70
2022/05/29 04:15:41;;;;;;;4.73;2.00;;;10.20;99.90;;;;;;4991593;28;20116;-70
2022/05/29 04:18:07;;;;;;;5.37;2.07;;;10.10;99.90;;;;;;4988999;28;20018;-70
2022/05/29 04:20:33;;;;;;;7.03;2.10;;;10.00;99.90;;;;;;4991263;28;20037;-70
2022/05/29 04:22:59;;;;;;;5.50;1.93;;;;;;;;;;4988705;28;20034;-70
2022/05/29 04:25:25;;;;;;;4.40;2.27;;;9.80;99.90;;;;;;4991014;28;20049;-69
2022/05/29 04:27:50;;;;;;;4.93;1.93;;;10.10;99.90;;;;;;4990918;28;20486;-70
2022/05/29 04:30:16;;;;;;;5.20;2.07;;;10.10;99.90;;;;;;4990414;28;20120;-70
2022/05/29 04:33:00;;;;;;;3.30;2.33;;;;;;;;;;4992570;28;20081;-68
2022/05/29 04:35:38;;;;;;;5.33;2.00;;;10.50;99.90;;;;;;4984116;28;20056;-68
2022/05/29 04:38:03;;;;;;;6.60;2.27;;;10.50;99.90;;;;;;4987018;28;20022;-70
2022/05/29 04:40:30;;;;;;;7.18;1.95;;;10.50;99.90;;;;;;4990762;28;20032;-69
2022/05/29 04:42:56;;;;;;;3.03;1.63;;;;;;;;;;4990775;28;20027;-69
2022/05/29 04:45:21;;;;;;;4.37;1.50;;;10.40;99.90;;;;;;4990493;28;20141;-68
2022/05/29 04:47:47;;;;;;;2.20;1.20;;;;;;;;;;4990499;28;20026;-69
2022/05/29 04:50:13;;;;;;;3.40;1.50;;;10.50;99.90;;;;;;4990397;28;20026;-69
2022/05/29 04:52:39;;;;;;;7.13;1.50;;;;;;;;;;4988658;28;20022;-68
2022/05/29 04:55:05;;;;;;;6.70;1.80;;;10.60;99.90;;;;;;4989754;28;20045;-68
2022/05/29 04:57:31;;;;;;;4.00;1.33;;;10.70;99.90;;;;;;4990657;28;20039;-68
2022/05/29 04:59:57;;;;;;;4.30;2.13;;;;;;;;;;4990399;28;20541;-68
2022/05/29 05:02:24;;;;;;;3.47;1.20;;;10.80;99.90;;;;;;4990334;28;20025;-69
2022/05/29 05:04:49;;;;;;;4.70;1.23;;;10.70;99.90;;;;;;4994571;28;20042;-68
2022/05/29 05:07:15;;;;;;;4.97;1.23;;;10.90;99.90;;;;;;4989546;28;20081;-68
2022/05/29 05:09:40;;;;;;;2.97;1.52;;;10.90;99.90;;;;;;4990462;28;20029;-68
2022/05/29 05:12:07;;;;;;;7.80;1.73;;;;;;;;;;4990782;28;20464;-69
2022/05/29 05:14:34;;;;;;;3.78;1.70;;;10.90;99.90;;;;;;4990450;28;20038;-68
2022/05/29 05:17:00;;;;;;;7.25;1.67;;;10.70;99.90;;;;;;4983942;28;20101;-68
2022/05/29 05:19:25;;;;;;;3.47;1.87;;;10.90;99.90;;;;;;4990468;28;20449;-69
2022/05/29 05:21:51;;;;;;;4.15;1.20;;;11.00;99.90;;;;;;4985019;28;20518;-68
2022/05/29 05:24:17;;;;;;;7.40;1.80;;;10.90;99.90;;;;;;4989527;28;20031;-69
2022/05/29 05:26:43;;;;;;;3.85;1.10;;;10.90;99.90;;;;;;4990552;28;20050;-68
2022/05/29 05:29:08;;;;;;;5.05;1.30;;;11.20;99.90;;;;;;4990049;28;20034;-68
2022/05/29 05:31:34;;;;;;;6.03;1.30;;;10.80;99.90;;;;;;4990056;28;20054;-68
2022/05/29 05:34:00;;;;;;;6.53;0.80;;;;;;;;;;4989111;28;20038;-68
2022/05/29 05:36:26;;;;;;;3.80;1.23;;;10.70;99.90;;;;;;4987924;28;20089;-69
2022/05/29 05:38:53;;;;;;;6.57;1.87;;;;;;;;;;4990092;28;20102;-68
2022/05/29 05:41:20;;;;;;;3.22;0.90;;;;;;;;;;4989872;28;20031;-69
2022/05/29 05:43:46;;;;;;;5.65;1.15;;;;;;;;;;4988849;28;20034;-69
2022/05/29 05:46:14;;;;;;;2.70;0.90;;;10.60;99.90;;;;;;4989635;28;20045;-69
2022/05/29 05:48:40;;;;;;;4.75;1.92;;;10.50;99.90;;;;;;4990201;28;20030;-69
2022/05/29 05:51:07;;;;;;;6.07;1.50;;;10.50;99.90;;;;;;4987717;28;20026;-69
2022/05/29 05:53:34;;;;;;;4.13;1.70;;;10.50;99.90;;;;;;4990339;28;20041;-69
2022/05/29 05:56:05;;;;;;;4.43;1.30;;;10.50;99.90;;;;;;4989633;28;20085;-69
2022/05/29 05:58:31;;;;;;;2.57;1.07;;;10.70;99.90;;;;;;4990208;28;20093;-69
2022/05/29 06:00:56;;;;;;;7.17;1.60;;;;;;;;;;4989824;28;20114;-69
2022/05/29 06:03:22;;;;;;;3.25;1.00;;;10.90;99.90;;;;;;4993479;28;20030;-69
2022/05/29 06:05:48;;;;;;;4.27;1.63;;;10.80;99.90;;;;;;4992613;28;20114;-69
2022/05/29 06:08:14;;;;;;;3.35;1.10;;;11.10;99.90;;;;;;4989514;28;20027;-69
2022/05/29 06:10:40;;;;;;;3.80;1.40;;;;;;;;;;4990650;28;20491;-70
2022/05/29 06:13:06;;;;;;;2.27;0.93;;;11.10;99.90;;;;;;4991032;28;20048;-70
2022/05/29 06:15:32;;;;;;;2.05;0.90;;;11.30;99.90;;;;;;4992163;28;20032;-69
2022/05/29 06:17:58;;;;;;;3.15;1.00;;;;;;;;;;4991850;28;20088;-69
2022/05/29 06:20:24;;;;;;;2.23;1.03;;;11.50;99.90;;;;;;4992986;28;20030;-69
2022/05/29 06:22:50;;;;;;;4.80;1.55;;;11.40;99.90;;;;;;4993305;28;20030;-69
2022/05/29 06:25:16;;;;;;;3.70;1.20;;;11.60;99.90;;;;;;4989146;28;20126;-69
2022/05/29 06:27:43;;;;;;;1.80;1.15;;;11.60;99.90;;;;;;4992148;28;20080;-69
2022/05/29 06:30:13;;;;;;;3.60;0.95;;;11.60;99.90;;;;;;4992370;28;20045;-69
2022/05/29 06:32:39;;;;;;;2.78;0.90;;;11.90;99.90;;;;;;4992907;28;20069;-69
2022/05/29 06:35:07;;;;;;;3.78;1.00;;;11.70;99.90;;;;;;5011654;28;20022;-69
2022/05/29 06:37:33;;;;;;;6.18;1.15;;;11.80;99.90;;;;;;5012991;28;20026;-69
2022/05/29 06:39:59;;;;;;;4.95;1.40;;;;;;;;;;5012493;28;20494;-71
2022/05/29 06:42:25;;;;;;;5.97;1.20;;;11.80;99.90;;;;;;4998523;28;20034;-71
2022/05/29 06:44:50;;;;;;;5.20;1.65;;;11.90;99.90;;;;;;4993008;28;20034;-71
2022/05/29 06:47:17;;;;;;;2.65;1.02;;;11.90;99.90;;;;;;4992870;28;20037;-71
2022/05/29 06:49:43;;;;;;;4.50;1.30;;;11.90;99.90;;;;;;4993062;28;20027;-71
2022/05/29 06:52:10;;;;;;;5.05;1.10;;;11.90;99.90;;;;;;4997867;28;20049;-71
2022/05/29 06:54:37;;;;;;;5.15;1.45;;;12.00;99.90;;;;;;4999638;28;20054;-72
2022/05/29 06:57:06;;;;;;;4.68;1.42;;;11.90;99.90;;;;;;4992580;28;20034;-69
2022/05/29 07:06:58;;;;;;;2.85;1.38;;;12.00;99.90;;;;;;4993195;28;20022;-72
2022/05/29 07:07:49;;;;;;;2.95;1.38;;;11.70;99.90;;;;;;4992908;28;20049;-69
2022/05/29 07:10:15;;;;;;;5.20;1.67;;;11.70;99.90;;;;;;4992377;28;20399;-69
2022/05/29 07:12:40;;;;;;;3.20;1.45;;;11.70;99.90;;;;;;4991963;28;20037;-69
2022/05/29 07:15:07;;;;;;;5.25;1.42;;;11.80;99.90;;;;;;4992301;28;20046;-72
2022/05/29 07:17:33;;;;;;;3.92;1.50;;;;;;;;;;4992220;28;20517;-71
2022/05/29 07:19:59;;;;;;;4.13;1.33;;;;;;;;;;4992181;28;20034;-72
2022/05/29 07:22:26;;;;;;;5.05;1.48;;;12.00;99.90;;;;;;4990199;28;20053;-73
2022/05/29 07:24:51;;;;;;;2.05;0.93;;;12.20;99.90;;;;;;4992597;28;20042;-72
2022/05/29 07:27:17;;;;;;;5.43;1.45;;;12.20;99.90;;;;;;4992167;28;20031;-72
2022/05/29 07:29:43;;;;;;;1.08;0.80;;;12.50;99.90;;;;;;4998352;28;20387;-73
2022/05/29 07:32:10;;;;;;;4.05;0.90;;;12.00;99.90;;;;;;5003281;28;20097;-70
2022/05/29 07:34:36;;;;;;;4.28;1.27;;;;;;;;;;4991664;28;20026;-70
2022/05/29 07:37:03;;;;;;;4.88;0.73;;;12.20;99.90;;;;;;5000758;28;20025;-70
2022/05/29 07:39:29;;;;;;;4.40;1.42;;;;;;;;;;4991835;28;20475;-70
2022/05/29 07:44:39;;;;;;;4.55;0.88;;;12.10;99.90;;;;;;4991980;28;20041;-70
2022/05/29 07:47:05;;;;;;;3.03;0.90;;;11.70;99.90;;;;;;4991149;28;20027;-70
2022/05/29 07:49:30;;;;;;;5.00;1.67;;;12.00;99.90;;;;;;4990764;28;20045;-70
2022/05/29 07:51:56;;;;;;;3.42;1.00;;;12.20;99.90;;;;;;4991983;28;20104;-71
2022/05/29 07:54:25;;;;;;;3.35;1.00;;;12.30;99.90;;;;;;4991908;28;20037;-71
2022/05/29 07:56:51;;;;;;;2.75;0.73;;;12.40;99.90;;;;;;4991793;28;20113;-72
2022/05/29 07:59:17;;;;;;;1.45;0.80;;;12.70;99.90;;;;;;4990677;28;20447;-72
2022/05/29 08:01:43;;;;;;;5.45;1.50;;;12.90;99.90;;;;;;4974131;28;20034;-72
2022/05/29 08:04:09;;;;;;;4.97;0.90;;;;;;;;;;4991332;28;20030;-73
2022/05/29 08:06:35;;;;;;;2.67;1.27;;;12.90;99.90;;;;;;4991731;28;20038;-73
2022/05/29 08:09:01;;;;;;;4.60;1.10;;;;;;;;;;4991047;28;20030;-71
2022/05/29 08:11:26;;;;;;;3.72;1.00;;;12.80;99.90;;;;;;4991789;28;20112;-71
2022/05/29 08:13:53;;;;;;;3.83;1.02;;;12.70;99.90;;;;;;4991593;28;20479;-70
2022/05/29 08:16:18;;;;;;;1.45;0.90;;;12.60;99.90;;;;;;4990888;28;20034;-71
2022/05/29 08:18:44;;;;;;;3.97;1.27;;;12.60;99.90;;;;;;4991511;28;20033;-72
2022/05/29 08:21:10;;;;;;;3.75;0.93;;;12.70;99.90;;;;;;4990888;28;20384;-72
2022/05/29 08:23:37;;;;;;;4.63;1.38;;;12.50;99.90;;;;;;4991579;28;20419;-71
2022/05/29 08:31:32;;;;;;;3.33;1.20;;;;;;;;;;5010553;28;20418;-71
2022/05/29 08:33:58;;;;;;;2.13;1.05;;;12.70;99.90;;;;;;4999217;28;20125;-72
2022/05/29 08:36:26;;;;;;;4.03;1.33;;;12.70;99.90;;;;;;4990936;28;20109;-71
2022/05/29 08:38:56;;;;;;;1.92;1.10;;;12.70;99.90;;;;;;4989403;28;20038;-72
2022/05/29 08:41:39;;;;;;;4.30;0.85;;;13.00;99.90;;;;;;4989488;28;20029;-71
2022/05/29 08:44:12;;;;;;;2.70;0.93;;;12.90;99.90;;;;;;4989028;28;20034;-71
2022/05/29 08:47:00;;;;;;;2.10;0.90;;;13.10;99.90;;;;;;4990539;28;20112;-71
2022/05/29 08:49:28;;;;;;;3.40;0.70;;;13.10;99.90;;;;;;4989958;28;20056;-72
2022/05/29 08:52:07;;;;;;;4.72;1.00;;;13.00;99.90;;;;;;4990791;28;20607;-71
2022/05/29 08:54:48;;;;;;;2.88;0.88;;;13.10;99.90;;;;;;4990811;28;20062;-71
2022/05/29 08:57:42;;;;;;;4.43;1.17;;;13.10;99.90;;;;;;4990481;28;20041;-71
2022/05/29 09:00:24;;;;;;;2.70;0.50;;;13.30;99.90;;;;;;5000851;28;20072;-71
2022/05/29 09:03:17;;;;;;;4.03;0.98;;;13.50;99.90;;;;;;5010088;28;20088;-71
2022/05/29 09:05:57;;;;;;;2.43;0.57;;;13.60;99.90;;;;;;5010146;28;20100;-71
2022/05/29 09:08:23;;;;;;;1.55;0.57;;;;;;;;;;5010104;28;20022;-71
2022/05/29 09:10:54;;;;;;;4.00;1.00;;;13.50;99.90;;;;;;5010134;28;20059;-71
2022/05/29 09:13:31;;;;;;;3.25;0.85;;;13.70;99.90;;;;;;5009678;28;20129;-70
2022/05/29 09:16:01;;;;;;;2.35;1.10;;;13.70;99.90;;;;;;5010314;28;20030;-71
2022/05/29 09:18:36;;;;;;;1.73;0.85;;;13.90;99.90;;;;;;4997881;28;20034;-71
2022/05/29 09:21:15;;;;;;;3.72;0.73;;;14.00;99.90;;;;;;4990151;28;20395;-71
2022/05/29 09:23:46;;;;;;;3.75;0.75;;;14.10;99.90;;;;;;5000689;28;20022;-71
2022/05/29 09:26:17;;;;;;;4.45;0.80;;;14.20;99.90;;;;;;4991100;28;20057;-71
2022/05/29 09:28:43;;;;;;;5.47;0.85;;;13.90;99.90;;;;;;4996226;28;20033;-71
2022/05/29 09:31:19;;;;;;;2.75;0.75;;;14.00;99.90;;;;;;5009386;28;20180;-71
2022/05/29 09:33:45;;;;;;;2.72;0.80;;;14.30;99.90;;;;;;4994582;28;20042;-72
2022/05/29 09:36:31;;;;;;;3.97;0.82;;;14.30;99.90;;;;;;4975141;28;20039;-74
2022/05/29 09:39:10;;;;;;;2.20;0.85;;;14.50;99.90;;;;;;4985889;28;20034;-72
2022/05/29 09:41:44;;;;;;;2.88;0.55;;;14.70;99.90;;;;;;4991065;28;20045;-71
2022/05/29 09:44:17;;;;;;;3.30;0.55;;;14.60;99.90;;;;;;5009712;28;20017;-72
2022/05/29 09:46:45;;;;;;;3.05;0.75;;;14.60;99.90;;;;;;4995743;28;20046;-71
2022/05/29 09:52:23;;;;;;;4.43;0.80;;;14.30;99.90;;;;;;4998651;28;20045;-72
2022/05/29 09:54:56;;;;;;;4.45;1.00;;;14.20;99.90;;;;;;4994023;28;20611;-72
2022/05/29 09:57:49;;;;;;;1.95;0.45;;;14.50;99.90;;;;;;4993433;28;20109;-72
2022/05/29 10:00:24;;;;;;;1.33;0.63;;;14.80;99.90;;;;;;4993487;28;20030;-72
2022/05/29 10:02:50;;;;;;;4.47;1.02;;;14.60;99.90;;;;;;4993619;28;20424;-72
2022/05/29 10:05:38;;;;;;;6.50;0.80;;;14.40;99.90;;;;;;4993515;28;20076;-71
2022/05/29 10:08:19;;;;;;;2.20;0.50;;;14.40;99.90;;;;;;4993576;28;20023;-71
2022/05/29 10:10:45;;;;;;;2.67;0.55;;;14.30;99.90;;;;;;4993459;28;20441;-71
2022/05/29 10:13:31;;;;;;;3.00;0.50;;;14.50;99.90;;;;;;4993357;28;20034;-73
2022/05/29 10:15:57;;;;;;;4.47;0.80;;;;;;;;;;4993625;28;20038;-73
2022/05/29 10:18:32;;;;;;;2.72;0.40;;;14.40;99.90;;;;;;4993693;28;20026;-72
2022/05/29 10:21:24;;;;;;;4.88;0.95;;;14.40;98.70;;;;;;4993347;28;20038;-73
2022/05/29 10:24:16;;;;;;;6.32;0.85;;;14.40;99.90;;;;;;4993644;28;20434;-73
2022/05/29 10:26:48;;;;;;;5.55;0.75;;;14.60;99.90;;;;;;4993206;28;20034;-73
2022/05/29 10:29:16;;;;;;;4.10;0.52;;;14.80;99.90;;;;;;4982590;28;20597;-73
2022/05/29 10:31:45;;;;;;;4.80;1.02;;;14.60;99.90;;;;;;4973917;28;20059;-72
2022/05/29 10:34:13;;;;;;;5.28;0.70;;;14.70;99.90;;;;;;4973453;28;20027;-72
2022/05/29 10:36:40;;;;;;;2.63;0.52;;;15.10;99.90;;;;;;4974432;28;20152;-72
2022/05/29 10:39:21;;;;;;;4.38;0.80;;;14.60;99.90;;;;;;4973375;28;20106;-72
2022/05/29 10:41:47;;;;;;;3.97;0.60;;;;;;;;;;4985469;28;20030;-72
2022/05/29 10:44:34;;;;;;;2.67;1.05;;;14.40;99.90;;;;;;4993314;28;20049;-72
2022/05/29 10:47:26;;;;;;;4.93;0.80;;;14.40;99.90;;;;;;4992474;28;20495;-72
2022/05/29 10:50:20;;;;;;;2.03;0.45;;;14.30;99.90;;;;;;4993390;28;20026;-72
2022/05/29 10:52:49;;;;;;;3.65;0.73;;;14.00;99.90;;;;;;4992027;28;20176;-72
2022/05/29 10:55:35;;;;;;;5.32;1.73;;;13.80;99.90;;;;;;4991937;28;20045;-72
2022/05/29 10:58:30;;;;;;;4.00;0.70;;;14.10;99.90;;;;;;4984622;28;20110;-72
2022/05/29 11:04:19;;;;;;;3.65;0.65;;;14.30;97.50;;;;;;4988623;28;20486;-71
2022/05/29 11:07:26;;;;;;;4.35;0.77;;;14.40;99.70;;;;;;4990154;28;20065;-72
2022/05/29 11:10:12;;;;;;;5.47;0.73;;;14.80;99.70;;;;;;4999727;28;20467;-72
2022/05/29 11:13:11;;;;;;;3.33;0.95;;;14.80;99.90;;;;;;4993113;28;20041;-73
2022/05/29 11:16:03;;;;;;;6.20;1.13;;;14.90;99.90;;;;;;4991579;28;20477;-72
2022/05/29 11:18:29;;;;;;;3.60;0.60;;;;;;;;;;4992184;28;20114;-71
2022/05/29 11:21:27;;;;;;;3.67;0.70;;;15.40;99.90;;;;;;4991644;28;20101;-71
2022/05/29 11:24:22;;;;;;;6.43;1.15;;;15.10;99.90;;;;;;4961465;28;20046;-72
2022/05/29 11:27:18;;;;;;;3.92;0.52;;;15.10;99.90;;;;;;4992385;28;20042;-73
2022/05/29 11:29:55;;;;;;;3.40;0.70;;;15.10;99.90;;;;;;4992195;28;20034;-73
2022/05/29 11:32:44;;;;;;;4.35;0.77;;;15.20;99.90;;;;;;4991248;28;20054;-72
2022/05/29 11:35:29;;;;;;;5.30;0.70;;;15.20;99.90;;;;;;4986577;28;20443;-72
2022/05/29 11:38:19;;;;;;;2.60;0.93;;;15.20;99.90;;;;;;4992178;28;20559;-72
2022/05/29 11:40:49;;;;;;;8.95;1.13;;;15.20;99.90;;;;;;4982417;28;20464;-72
2022/05/29 11:43:34;;;;;;;4.18;0.60;;;15.00;99.90;;;;;;4987738;28;20038;-72
2022/05/29 11:52:32;;;;;;;3.58;0.90;;;15.20;99.90;;;;;;4989109;28;20105;-72
2022/05/29 11:55:08;;;;;;;8.80;0.93;;;15.90;99.90;;;;;;4974922;28;20026;-71
2022/05/29 11:57:44;;;;;;;6.18;0.85;;;15.60;99.90;;;;;;4990628;28;20105;-72
2022/05/29 12:00:34;;;;;;;5.28;2.00;;;15.80;95.60;;;;;;4989535;28;20420;-74
2022/05/29 12:03:19;;;;;;;4.40;0.95;;;16.10;94.80;;;;;;4990683;28;20027;-72
2022/05/29 12:06:26;;;;;;;3.85;0.80;;;16.10;93.90;;;;;;4991620;28;20056;-72
2022/05/29 12:08:56;;;;;;;2.30;1.08;;;16.80;93.70;;;;;;4993216;28;20497;-72
2022/05/29 12:11:48;;;;;;;1.38;0.43;;;16.00;93.90;;;;;;5004452;28;20038;-72
2022/05/29 12:14:26;;;;;;;1.85;0.60;;;16.20;99.90;;;;;;4987444;28;20039;-72
2022/05/29 12:17:06;;;;;;;4.70;0.65;;;16.20;93.00;;;;;;4991415;28;20072;-72
2022/05/29 12:19:40;;;;;;;3.38;0.50;;;16.30;93.80;;;;;;5005995;28;20054;-72
2022/05/29 12:22:09;;;;;;;4.60;0.68;;;16.20;94.50;;;;;;4989281;28;20030;-72
2022/05/29 12:24:41;;;;;;;0.98;0.60;;;16.20;93.30;;;;;;4990252;28;20026;-72
2022/05/29 12:27:22;;;;;;;2.15;0.60;;;16.30;93.40;;;;;;4990723;28;20153;-73
2022/05/29 12:30:07;;;;;;;1.42;0.40;;;16.50;93.40;;;;;;4991224;28;20034;-72
2022/05/29 12:32:35;;;;;;;3.03;0.60;;;16.70;92.30;;;;;;4990516;28;20050;-72
2022/05/29 12:35:20;;;;;;;1.45;0.38;;;16.40;92.60;;;;;;4990150;28;20018;-72
2022/05/29 12:37:58;;;;;;;4.50;0.60;;;16.60;91.90;;;;;;4991016;28;20030;-72
2022/05/29 12:40:23;;;;;;;2.97;0.60;;;16.50;91.90;;;;;;4991269;28;20018;-72
2022/05/29 12:43:17;;;;;;;1.65;0.50;;;16.50;92.30;;;;;;4990775;28;20040;-72
2022/05/29 12:46:11;;;;;;;2.42;0.88;;;16.10;98.50;;;;;;4990981;28;20040;-72
2022/05/29 12:49:10;;;;;;;0.80;0.20;;;15.90;99.20;;;;;;4986043;28;20022;-71
2022/05/29 12:51:57;;;;;;;4.00;0.75;;;15.70;92.10;;;;;;4971285;28;20039;-71
2022/05/29 12:54:45;;;;;;;3.60;0.75;;;15.60;99.30;;;;;;4985865;28;20542;-71
2022/05/29 12:57:40;;;;;;;2.35;0.40;;;15.80;99.10;;;;;;4987031;28;20027;-72
2022/05/29 13:00:24;;;;;;;;;;;15.50;93.10;;;;;;4971418;28;20022;-71
2022/05/29 13:03:31;;;;;;;1.25;0.35;;;15.70;99.20;;;;;;4987534;28;19909;-72
2022/05/29 13:06:39;;;;;;;2.20;0.63;;;16.00;91.80;;;;;;4988932;28;20042;-71
2022/05/29 13:09:23;;;;;;;2.28;0.65;;;15.90;98.20;;;;;;4971311;28;20053;-71
2022/05/29 13:11:57;;;;;;;2.67;0.60;;;16.30;98.40;;;;;;4983131;28;20046;-72
2022/05/29 13:14:25;;;;;;;2.33;0.50;;;16.10;92.00;;;;;;4990508;28;20176;-72
2022/05/29 13:17:10;;;;;;;3.88;0.50;;;15.90;98.50;;;;;;4990770;28;20077;-72
2022/05/29 13:20:14;;;;;;;3.78;0.65;;;15.20;98.80;;;;;;4991158;28;20506;-71
2022/05/29 13:23:01;;;;;;;1.95;0.50;;;15.10;99.10;;;;;;4993582;28;20056;-71
2022/05/29 13:25:30;;;;;;;1.38;0.70;;;15.10;92.40;;;;;;4994876;28;20038;-72
2022/05/29 13:27:58;;;;;;;1.95;0.52;;;14.50;99.50;;;;;;4994729;28;20022;-72
2022/05/29 13:31:05;;;;;;;4.40;0.63;;;15.00;99.60;;;;;;4994910;28;20097;-72
2022/05/29 13:33:31;;;;;;;1.42;0.40;;;15.20;99.60;;;;;;4992852;28;20097;-71
2022/05/29 13:35:58;;;;;;;3.22;0.55;;;15.40;99.90;;;;;;4994150;28;20034;-72
2022/05/29 13:38:45;;;;;;;2.08;0.50;;;15.30;93.10;;;;;;4994840;28;20373;-72
2022/05/29 13:41:32;;;;;;;3.33;0.70;;;15.80;99.20;;;;;;4987669;28;20038;-71
2022/05/29 13:44:29;;;;;;;2.28;0.50;;;15.80;99.10;;;;;;4945279;28;20042;-71
2022/05/29 13:47:23;;;;;;;3.42;0.55;;;16.00;92.10;;;;;;4974884;28;20648;-72
2022/05/29 13:49:51;;;;;;;;;;;16.20;91.20;;;;;;4974819;28;20019;-72
2022/05/29 13:52:25;;;;;;;3.40;0.52;;;16.30;91.70;;;;;;4974280;28;19918;-71
2022/05/29 13:55:12;;;;;;;2.15;0.40;;;16.30;91.40;;;;;;4974754;28;20481;-71
2022/05/29 14:03:58;;;;;;;1.63;0.47;;;16.30;97.40;;;;;;4974806;28;20038;-72
2022/05/29 14:06:31;;;;;;;2.47;0.30;;;16.20;90.00;;;;;;4974941;28;20476;-72
2022/05/29 14:09:08;;;;;;;6.43;0.60;;;16.20;90.20;;;;;;4974275;28;20031;-72
2022/05/29 14:11:59;;;;;;;3.35;0.60;;;16.20;90.30;;;;;;4977131;28;20019;-72
2022/05/29 14:14:34;;;;;;;2.78;0.60;;;16.20;90.50;;;;;;4991565;28;20061;-72
2022/05/29 14:17:20;;;;;;;6.13;1.63;;;16.10;90.40;;;;;;4993191;28;20030;-72